sensor_id;sensor_type;location;lat;lon;timestamp;P1;durP1;ratioP1;P2;durP2;ratioP2
16270;SDS011;8243;49.048;8.396;2023-06-10T00:01:29;7.37;;;6.10;;
16270;SDS011;8243;49.048;8.396;2023-06-10T00:03:55;8.70;;;5.90;;
16270;SDS011;8243;49.048;8.396;2023-06-10T00:06:20;7.37;;;6.63;;
16270;SDS011;8243;49.048;8.396;2023-06-10T00:08:49;6.93;;;6.33;;
16270;SDS011;8243;49.048;8.396;2023-06-10T00:11:15;7.57;;;6.40;;
16270;SDS011;8243;49.048;8.396;2023-06-10T00:13:40;7.30;;;6.57;;
16270;SDS011;8243;49.048;8.396;2023-06-10T00:16:06;7.80;;;7.10;;
16270;SDS011;8243;49.048;8.396;2023-06-10T00:18:31;7.37;;;6.77;;
16270;SDS011;8243;49.048;8.396;2023-06-10T00:20:57;7.53;;;6.93;;
16270;SDS011;8243;49.048;8.396;2023-06-10T00:23:29;7.07;;;6.47;;
16270;SDS011;8243;49.048;8.396;2023-06-10T00:25:57;7.43;;;6.83;;
16270;SDS011;8243;49.048;8.396;2023-06-10T00:28:24;7.60;;;6.87;;
16270;SDS011;8243;49.048;8.396;2023-06-10T00:30:49;8.43;;;7.00;;
16270;SDS011;8243;49.048;8.396;2023-06-10T00:33:15;8.17;;;7.57;;
16270;SDS011;8243;49.048;8.396;2023-06-10T00:35:40;9.30;;;6.80;;
16270;SDS011;8243;49.048;8.396;2023-06-10T00:38:06;7.90;;;7.20;;
16270;SDS011;8243;49.048;8.396;2023-06-10T00:40:33;8.27;;;7.47;;
16270;SDS011;8243;49.048;8.396;2023-06-10T00:43:03;9.50;;;7.83;;
16270;SDS011;8243;49.048;8.396;2023-06-10T00:45:29;8.00;;;7.30;;
16270;SDS011;8243;49.048;8.396;2023-06-10T00:47:55;8.17;;;7.47;;
16270;SDS011;8243;49.048;8.396;2023-06-10T00:50:21;8.20;;;7.40;;
16270;SDS011;8243;49.048;8.396;2023-06-10T00:52:46;8.30;;;7.60;;
16270;SDS011;8243;49.048;8.396;2023-06-10T00:55:13;8.10;;;7.33;;
16270;SDS011;8243;49.048;8.396;2023-06-10T00:57:41;8.07;;;7.33;;
16270;SDS011;8243;49.048;8.396;2023-06-10T01:00:09;7.67;;;7.07;;
16270;SDS011;8243;49.048;8.396;2023-06-10T01:02:36;7.90;;;7.20;;
16270;SDS011;8243;49.048;8.396;2023-06-10T01:05:01;7.60;;;7.00;;
16270;SDS011;8243;49.048;8.396;2023-06-10T01:07:32;8.10;;;6.97;;
16270;SDS011;8243;49.048;8.396;2023-06-10T01:10:11;9.30;;;7.93;;
16270;SDS011;8243;49.048;8.396;2023-06-10T01:12:47;7.90;;;7.20;;
16270;SDS011;8243;49.048;8.396;2023-06-10T01:15:24;9.13;;;7.13;;
16270;SDS011;8243;49.048;8.396;2023-06-10T01:18:03;8.47;;;7.73;;
16270;SDS011;8243;49.048;8.396;2023-06-10T01:20:36;9.90;;;7.30;;
16270;SDS011;8243;49.048;8.396;2023-06-10T01:23:05;8.57;;;7.77;;
16270;SDS011;8243;49.048;8.396;2023-06-10T01:25:31;7.70;;;7.00;;
16270;SDS011;8243;49.048;8.396;2023-06-10T01:33:43;10.13;;;7.73;;
16270;SDS011;8243;49.048;8.396;2023-06-10T01:36:12;8.60;;;7.83;;
16270;SDS011;8243;49.048;8.396;2023-06-10T01:38:41;8.17;;;7.47;;
16270;SDS011;8243;49.048;8.396;2023-06-10T01:41:09;7.67;;;6.97;;
16270;SDS011;8243;49.048;8.396;2023-06-10T01:43:37;8.10;;;7.37;;
16270;SDS011;8243;49.048;8.396;2023-06-10T01:46:03;8.57;;;7.73;;
16270;SDS011;8243;49.048;8.396;2023-06-10T01:48:29;7.93;;;7.33;;
16270;SDS011;8243;49.048;8.396;2023-06-10T01:50:55;8.57;;;7.73;;
16270;SDS011;8243;49.048;8.396;2023-06-10T01:53:23;9.70;;;7.20;;
16270;SDS011;8243;49.048;8.396;2023-06-10T01:55:49;8.63;;;7.33;;
16270;SDS011;8243;49.048;8.396;2023-06-10T01:58:15;9.03;;;8.23;;
16270;SDS011;8243;49.048;8.396;2023-06-10T02:00:40;8.67;;;7.97;;
16270;SDS011;8243;49.048;8.396;2023-06-10T02:03:06;8.17;;;7.47;;
16270;SDS011;8243;49.048;8.396;2023-06-10T02:05:31;8.30;;;7.63;;
16270;SDS011;8243;49.048;8.396;2023-06-10T02:07:57;9.60;;;8.40;;
16270;SDS011;8243;49.048;8.396;2023-06-10T02:10:23;8.80;;;8.10;;
16270;SDS011;8243;49.048;8.396;2023-06-10T02:12:48;8.70;;;7.80;;
16270;SDS011;8243;49.048;8.396;2023-06-10T02:15:14;8.67;;;7.87;;
16270;SDS011;8243;49.048;8.396;2023-06-10T02:17:40;8.50;;;7.80;;
16270;SDS011;8243;49.048;8.396;2023-06-10T02:20:05;8.70;;;8.00;;
16270;SDS011;8243;49.048;8.396;2023-06-10T02:22:32;8.17;;;7.37;;
16270;SDS011;8243;49.048;8.396;2023-06-10T02:24:58;10.70;;;8.50;;
16270;SDS011;8243;49.048;8.396;2023-06-10T02:27:24;9.17;;;8.10;;
16270;SDS011;8243;49.048;8.396;2023-06-10T02:29:50;9.00;;;8.17;;
16270;SDS011;8243;49.048;8.396;2023-06-10T02:32:16;9.13;;;8.23;;
16270;SDS011;8243;49.048;8.396;2023-06-10T02:34:42;9.43;;;8.47;;
16270;SDS011;8243;49.048;8.396;2023-06-10T02:37:08;9.20;;;8.20;;
16270;SDS011;8243;49.048;8.396;2023-06-10T02:39:34;9.50;;;8.70;;
16270;SDS011;8243;49.048;8.396;2023-06-10T02:42:00;9.50;;;8.70;;
16270;SDS011;8243;49.048;8.396;2023-06-10T02:44:25;8.80;;;8.00;;
16270;SDS011;8243;49.048;8.396;2023-06-10T02:46:51;9.03;;;8.33;;
16270;SDS011;8243;49.048;8.396;2023-06-10T02:49:17;9.20;;;7.50;;
16270;SDS011;8243;49.048;8.396;2023-06-10T02:51:42;9.13;;;8.23;;
16270;SDS011;8243;49.048;8.396;2023-06-10T02:54:09;8.63;;;7.83;;
16270;SDS011;8243;49.048;8.396;2023-06-10T02:56:35;7.80;;;7.20;;
16270;SDS011;8243;49.048;8.396;2023-06-10T02:59:01;9.30;;;8.40;;
16270;SDS011;8243;49.048;8.396;2023-06-10T03:01:27;8.63;;;7.43;;
16270;SDS011;8243;49.048;8.396;2023-06-10T03:03:53;9.60;;;7.73;;
16270;SDS011;8243;49.048;8.396;2023-06-10T03:06:21;8.13;;;7.43;;
16270;SDS011;8243;49.048;8.396;2023-06-10T03:08:49;8.73;;;8.03;;
16270;SDS011;8243;49.048;8.396;2023-06-10T03:11:14;9.30;;;8.50;;
16270;SDS011;8243;49.048;8.396;2023-06-10T03:13:40;8.90;;;8.10;;
16270;SDS011;8243;49.048;8.396;2023-06-10T03:16:05;8.80;;;8.10;;
16270;SDS011;8243;49.048;8.396;2023-06-10T03:18:32;9.17;;;8.37;;
16270;SDS011;8243;49.048;8.396;2023-06-10T03:20:58;8.93;;;8.20;;
16270;SDS011;8243;49.048;8.396;2023-06-10T03:23:25;9.90;;;9.00;;
16270;SDS011;8243;49.048;8.396;2023-06-10T03:25:52;8.90;;;8.00;;
16270;SDS011;8243;49.048;8.396;2023-06-10T03:28:19;9.60;;;8.80;;
16270;SDS011;8243;49.048;8.396;2023-06-10T03:30:45;9.63;;;8.73;;
16270;SDS011;8243;49.048;8.396;2023-06-10T03:33:12;8.30;;;7.60;;
16270;SDS011;8243;49.048;8.396;2023-06-10T03:35:38;9.17;;;8.30;;
16270;SDS011;8243;49.048;8.396;2023-06-10T03:38:04;9.37;;;8.17;;
16270;SDS011;8243;49.048;8.396;2023-06-10T03:40:31;9.37;;;8.47;;
16270;SDS011;8243;49.048;8.396;2023-06-10T03:42:57;9.30;;;8.50;;
16270;SDS011;8243;49.048;8.396;2023-06-10T03:45:22;9.27;;;8.47;;
16270;SDS011;8243;49.048;8.396;2023-06-10T03:47:49;9.43;;;8.57;;
16270;SDS011;8243;49.048;8.396;2023-06-10T03:50:15;9.87;;;9.00;;
16270;SDS011;8243;49.048;8.396;2023-06-10T03:52:41;8.87;;;8.17;;
16270;SDS011;8243;49.048;8.396;2023-06-10T03:55:07;8.90;;;8.10;;
16270;SDS011;8243;49.048;8.396;2023-06-10T03:57:32;8.90;;;8.10;;
16270;SDS011;8243;49.048;8.396;2023-06-10T03:59:58;8.80;;;8.10;;
16270;SDS011;8243;49.048;8.396;2023-06-10T04:02:23;8.87;;;8.03;;
16270;SDS011;8243;49.048;8.396;2023-06-10T04:04:50;8.07;;;7.27;;
16270;SDS011;8243;49.048;8.396;2023-06-10T04:07:16;8.13;;;7.43;;
16270;SDS011;8243;49.048;8.396;2023-06-10T04:09:44;7.40;;;6.80;;
16270;SDS011;8243;49.048;8.396;2023-06-10T04:12:09;7.60;;;6.90;;
16270;SDS011;8243;49.048;8.396;2023-06-10T04:14:35;6.30;;;5.80;;
16270;SDS011;8243;49.048;8.396;2023-06-10T04:17:02;7.00;;;6.40;;
16270;SDS011;8243;49.048;8.396;2023-06-10T04:19:31;7.13;;;6.53;;
16270;SDS011;8243;49.048;8.396;2023-06-10T04:21:57;7.30;;;6.60;;
16270;SDS011;8243;49.048;8.396;2023-06-10T04:24:23;6.77;;;6.27;;
16270;SDS011;8243;49.048;8.396;2023-06-10T04:26:48;7.30;;;6.60;;
16270;SDS011;8243;49.048;8.396;2023-06-10T04:29:14;7.10;;;6.50;;
16270;SDS011;8243;49.048;8.396;2023-06-10T04:31:40;6.43;;;5.83;;
16270;SDS011;8243;49.048;8.396;2023-06-10T04:34:06;7.70;;;6.17;;
16270;SDS011;8243;49.048;8.396;2023-06-10T04:36:32;6.70;;;6.10;;
16270;SDS011;8243;49.048;8.396;2023-06-10T04:38:58;6.77;;;6.17;;
16270;SDS011;8243;49.048;8.396;2023-06-10T04:41:23;6.30;;;5.73;;
16270;SDS011;8243;49.048;8.396;2023-06-10T04:43:50;6.97;;;6.37;;
16270;SDS011;8243;49.048;8.396;2023-06-10T04:46:16;7.97;;;6.33;;
16270;SDS011;8243;49.048;8.396;2023-06-10T04:48:42;6.63;;;5.93;;
16270;SDS011;8243;49.048;8.396;2023-06-10T04:51:07;7.30;;;5.70;;
16270;SDS011;8243;49.048;8.396;2023-06-10T04:53:33;6.30;;;5.80;;
16270;SDS011;8243;49.048;8.396;2023-06-10T04:55:58;6.43;;;5.83;;
16270;SDS011;8243;49.048;8.396;2023-06-10T04:58:24;6.37;;;5.87;;
16270;SDS011;8243;49.048;8.396;2023-06-10T05:00:49;5.97;;;5.50;;
16270;SDS011;8243;49.048;8.396;2023-06-10T05:03:15;5.70;;;5.30;;
16270;SDS011;8243;49.048;8.396;2023-06-10T05:05:41;5.70;;;5.20;;
16270;SDS011;8243;49.048;8.396;2023-06-10T05:08:06;6.70;;;5.80;;
16270;SDS011;8243;49.048;8.396;2023-06-10T05:10:32;5.80;;;5.40;;
16270;SDS011;8243;49.048;8.396;2023-06-10T05:12:59;6.00;;;5.43;;
16270;SDS011;8243;49.048;8.396;2023-06-10T05:15:24;5.53;;;4.97;;
16270;SDS011;8243;49.048;8.396;2023-06-10T05:17:50;5.83;;;5.33;;
16270;SDS011;8243;49.048;8.396;2023-06-10T05:20:16;5.57;;;5.17;;
16270;SDS011;8243;49.048;8.396;2023-06-10T05:22:43;6.33;;;5.73;;
16270;SDS011;8243;49.048;8.396;2023-06-10T05:25:09;6.23;;;5.63;;
16270;SDS011;8243;49.048;8.396;2023-06-10T05:27:35;5.80;;;5.13;;
16270;SDS011;8243;49.048;8.396;2023-06-10T05:30:01;5.47;;;4.97;;
16270;SDS011;8243;49.048;8.396;2023-06-10T05:32:28;6.23;;;5.63;;
16270;SDS011;8243;49.048;8.396;2023-06-10T05:34:53;5.27;;;4.80;;
16270;SDS011;8243;49.048;8.396;2023-06-10T05:37:19;5.93;;;5.43;;
16270;SDS011;8243;49.048;8.396;2023-06-10T05:39:45;5.30;;;4.50;;
16270;SDS011;8243;49.048;8.396;2023-06-10T05:42:10;5.70;;;5.30;;
16270;SDS011;8243;49.048;8.396;2023-06-10T05:44:36;5.47;;;4.77;;
16270;SDS011;8243;49.048;8.396;2023-06-10T05:47:02;5.60;;;5.20;;
16270;SDS011;8243;49.048;8.396;2023-06-10T05:49:27;5.60;;;4.87;;
16270;SDS011;8243;49.048;8.396;2023-06-10T05:51:53;5.43;;;4.93;;
16270;SDS011;8243;49.048;8.396;2023-06-10T05:54:21;6.00;;;5.50;;
16270;SDS011;8243;49.048;8.396;2023-06-10T05:56:46;5.03;;;4.53;;
16270;SDS011;8243;49.048;8.396;2023-06-10T05:59:12;5.20;;;4.70;;
16270;SDS011;8243;49.048;8.396;2023-06-10T06:01:37;5.30;;;4.80;;
16270;SDS011;8243;49.048;8.396;2023-06-10T06:04:04;4.97;;;4.50;;
16270;SDS011;8243;49.048;8.396;2023-06-10T06:06:30;5.10;;;4.60;;
16270;SDS011;8243;49.048;8.396;2023-06-10T06:08:55;5.33;;;4.83;;
16270;SDS011;8243;49.048;8.396;2023-06-10T06:11:21;5.07;;;4.67;;
16270;SDS011;8243;49.048;8.396;2023-06-10T06:13:46;4.73;;;4.33;;
16270;SDS011;8243;49.048;8.396;2023-06-10T06:16:13;5.03;;;4.37;;
16270;SDS011;8243;49.048;8.396;2023-06-10T06:18:39;4.63;;;4.23;;
16270;SDS011;8243;49.048;8.396;2023-06-10T06:21:04;4.67;;;4.23;;
16270;SDS011;8243;49.048;8.396;2023-06-10T06:23:30;4.20;;;3.90;;
16270;SDS011;8243;49.048;8.396;2023-06-10T06:25:56;4.37;;;3.93;;
16270;SDS011;8243;49.048;8.396;2023-06-10T06:28:21;5.33;;;4.47;;
16270;SDS011;8243;49.048;8.396;2023-06-10T06:30:47;4.47;;;4.07;;
16270;SDS011;8243;49.048;8.396;2023-06-10T06:33:13;4.67;;;4.27;;
16270;SDS011;8243;49.048;8.396;2023-06-10T06:35:39;4.87;;;4.47;;
16270;SDS011;8243;49.048;8.396;2023-06-10T06:38:05;4.70;;;4.30;;
16270;SDS011;8243;49.048;8.396;2023-06-10T06:40:30;5.00;;;3.97;;
16270;SDS011;8243;49.048;8.396;2023-06-10T06:42:56;4.20;;;3.80;;
16270;SDS011;8243;49.048;8.396;2023-06-10T06:45:21;4.30;;;4.00;;
16270;SDS011;8243;49.048;8.396;2023-06-10T06:47:47;4.57;;;4.17;;
16270;SDS011;8243;49.048;8.396;2023-06-10T06:50:13;4.97;;;4.57;;
16270;SDS011;8243;49.048;8.396;2023-06-10T06:52:39;4.20;;;3.90;;
16270;SDS011;8243;49.048;8.396;2023-06-10T06:55:04;5.80;;;4.27;;
16270;SDS011;8243;49.048;8.396;2023-06-10T06:57:31;6.80;;;3.77;;
16270;SDS011;8243;49.048;8.396;2023-06-10T06:59:57;4.73;;;4.33;;
16270;SDS011;8243;49.048;8.396;2023-06-10T07:02:22;6.03;;;4.37;;
16270;SDS011;8243;49.048;8.396;2023-06-10T07:04:48;4.47;;;4.17;;
16270;SDS011;8243;49.048;8.396;2023-06-10T07:07:14;4.13;;;3.83;;
16270;SDS011;8243;49.048;8.396;2023-06-10T07:09:40;4.50;;;4.20;;
16270;SDS011;8243;49.048;8.396;2023-06-10T07:12:06;4.83;;;3.93;;
16270;SDS011;8243;49.048;8.396;2023-06-10T07:14:32;4.43;;;3.83;;
16270;SDS011;8243;49.048;8.396;2023-06-10T07:16:57;4.40;;;4.00;;
16270;SDS011;8243;49.048;8.396;2023-06-10T07:19:23;4.50;;;3.63;;
16270;SDS011;8243;49.048;8.396;2023-06-10T07:21:49;4.20;;;3.90;;
16270;SDS011;8243;49.048;8.396;2023-06-10T07:24:14;4.27;;;3.90;;
16270;SDS011;8243;49.048;8.396;2023-06-10T07:26:40;4.40;;;4.00;;
16270;SDS011;8243;49.048;8.396;2023-06-10T07:29:05;4.83;;;4.33;;
16270;SDS011;8243;49.048;8.396;2023-06-10T07:31:31;4.47;;;4.07;;
16270;SDS011;8243;49.048;8.396;2023-06-10T07:33:57;4.40;;;4.00;;
16270;SDS011;8243;49.048;8.396;2023-06-10T07:36:22;5.03;;;4.57;;
16270;SDS011;8243;49.048;8.396;2023-06-10T07:38:48;4.57;;;4.23;;
16270;SDS011;8243;49.048;8.396;2023-06-10T07:41:13;4.47;;;3.97;;
16270;SDS011;8243;49.048;8.396;2023-06-10T07:43:41;4.40;;;4.00;;
16270;SDS011;8243;49.048;8.396;2023-06-10T07:46:07;4.47;;;4.17;;
16270;SDS011;8243;49.048;8.396;2023-06-10T07:48:32;4.60;;;4.20;;
16270;SDS011;8243;49.048;8.396;2023-06-10T07:50:58;4.13;;;3.83;;
16270;SDS011;8243;49.048;8.396;2023-06-10T07:53:23;4.70;;;4.33;;
16270;SDS011;8243;49.048;8.396;2023-06-10T07:55:49;4.03;;;3.73;;
16270;SDS011;8243;49.048;8.396;2023-06-10T07:58:14;4.33;;;3.93;;
16270;SDS011;8243;49.048;8.396;2023-06-10T08:00:40;3.83;;;3.53;;
16270;SDS011;8243;49.048;8.396;2023-06-10T08:03:07;4.67;;;4.17;;
16270;SDS011;8243;49.048;8.396;2023-06-10T08:05:32;3.80;;;3.60;;
16270;SDS011;8243;49.048;8.396;2023-06-10T08:07:58;5.00;;;4.00;;
16270;SDS011;8243;49.048;8.396;2023-06-10T08:10:23;3.73;;;3.43;;
16270;SDS011;8243;49.048;8.396;2023-06-10T08:12:49;3.77;;;3.47;;
16270;SDS011;8243;49.048;8.396;2023-06-10T08:15:15;3.93;;;3.63;;
16270;SDS011;8243;49.048;8.396;2023-06-10T08:17:40;4.00;;;3.70;;
16270;SDS011;8243;49.048;8.396;2023-06-10T08:20:06;3.90;;;3.60;;
16270;SDS011;8243;49.048;8.396;2023-06-10T08:22:32;3.77;;;3.40;;
16270;SDS011;8243;49.048;8.396;2023-06-10T08:24:58;3.80;;;3.50;;
16270;SDS011;8243;49.048;8.396;2023-06-10T08:27:24;3.87;;;3.57;;
16270;SDS011;8243;49.048;8.396;2023-06-10T08:29:50;4.10;;;3.80;;
16270;SDS011;8243;49.048;8.396;2023-06-10T08:32:15;3.97;;;3.67;;
16270;SDS011;8243;49.048;8.396;2023-06-10T08:34:41;5.37;;;3.90;;
16270;SDS011;8243;49.048;8.396;2023-06-10T08:37:06;3.93;;;3.57;;
16270;SDS011;8243;49.048;8.396;2023-06-10T08:39:32;4.03;;;3.67;;
16270;SDS011;8243;49.048;8.396;2023-06-10T08:44:41;4.07;;;3.77;;
16270;SDS011;8243;49.048;8.396;2023-06-10T08:47:15;3.93;;;3.63;;
16270;SDS011;8243;49.048;8.396;2023-06-10T08:49:42;5.83;;;4.10;;
16270;SDS011;8243;49.048;8.396;2023-06-10T08:52:14;4.03;;;3.70;;
16270;SDS011;8243;49.048;8.396;2023-06-10T08:55:30;4.87;;;4.43;;
16270;SDS011;8243;49.048;8.396;2023-06-10T08:57:35;4.40;;;4.00;;
16270;SDS011;8243;49.048;8.396;2023-06-10T09:00:02;3.77;;;3.57;;
16270;SDS011;8243;49.048;8.396;2023-06-10T09:02:29;4.20;;;3.80;;
16270;SDS011;8243;49.048;8.396;2023-06-10T09:04:56;4.43;;;4.03;;
16270;SDS011;8243;49.048;8.396;2023-06-10T09:07:22;4.20;;;3.90;;
16270;SDS011;8243;49.048;8.396;2023-06-10T09:09:48;5.13;;;3.80;;
16270;SDS011;8243;49.048;8.396;2023-06-10T09:12:14;4.20;;;3.90;;
16270;SDS011;8243;49.048;8.396;2023-06-10T09:14:41;3.97;;;3.67;;
16270;SDS011;8243;49.048;8.396;2023-06-10T09:17:07;4.83;;;4.33;;
16270;SDS011;8243;49.048;8.396;2023-06-10T09:19:32;4.17;;;3.70;;
16270;SDS011;8243;49.048;8.396;2023-06-10T09:21:58;4.20;;;3.90;;
16270;SDS011;8243;49.048;8.396;2023-06-10T09:24:24;4.43;;;4.13;;
16270;SDS011;8243;49.048;8.396;2023-06-10T09:26:51;4.20;;;3.87;;
16270;SDS011;8243;49.048;8.396;2023-06-10T09:29:52;4.23;;;3.93;;
16270;SDS011;8243;49.048;8.396;2023-06-10T09:32:19;4.37;;;4.07;;
16270;SDS011;8243;49.048;8.396;2023-06-10T09:34:45;4.50;;;4.20;;
16270;SDS011;8243;49.048;8.396;2023-06-10T09:37:11;4.70;;;4.37;;
16270;SDS011;8243;49.048;8.396;2023-06-10T09:39:38;4.67;;;4.27;;
16270;SDS011;8243;49.048;8.396;2023-06-10T09:42:26;4.83;;;4.37;;
16270;SDS011;8243;49.048;8.396;2023-06-10T09:44:51;4.73;;;4.13;;
16270;SDS011;8243;49.048;8.396;2023-06-10T09:47:26;9.07;;;4.83;;
16270;SDS011;8243;49.048;8.396;2023-06-10T09:49:52;5.20;;;4.70;;
16270;SDS011;8243;49.048;8.396;2023-06-10T09:52:24;5.03;;;4.63;;
16270;SDS011;8243;49.048;8.396;2023-06-10T09:54:52;5.27;;;4.70;;
16270;SDS011;8243;49.048;8.396;2023-06-10T09:57:21;13.03;;;4.33;;
16270;SDS011;8243;49.048;8.396;2023-06-10T09:59:47;4.70;;;4.30;;
16270;SDS011;8243;49.048;8.396;2023-06-10T10:02:13;6.17;;;4.00;;
16270;SDS011;8243;49.048;8.396;2023-06-10T10:04:40;4.77;;;4.37;;
16270;SDS011;8243;49.048;8.396;2023-06-10T10:07:06;4.20;;;3.90;;
16270;SDS011;8243;49.048;8.396;2023-06-10T10:09:33;4.63;;;4.10;;
16270;SDS011;8243;49.048;8.396;2023-06-10T10:12:01;5.53;;;4.07;;
16270;SDS011;8243;49.048;8.396;2023-06-10T10:14:27;5.50;;;4.53;;
16270;SDS011;8243;49.048;8.396;2023-06-10T10:16:56;4.37;;;4.00;;
16270;SDS011;8243;49.048;8.396;2023-06-10T10:19:25;4.40;;;4.10;;
16270;SDS011;8243;49.048;8.396;2023-06-10T10:22:10;4.80;;;4.40;;
16270;SDS011;8243;49.048;8.396;2023-06-10T10:24:46;6.67;;;4.43;;
16270;SDS011;8243;49.048;8.396;2023-06-10T10:27:21;4.20;;;3.90;;
16270;SDS011;8243;49.048;8.396;2023-06-10T10:29:52;4.57;;;3.93;;
16270;SDS011;8243;49.048;8.396;2023-06-10T10:32:29;4.57;;;4.17;;
16270;SDS011;8243;49.048;8.396;2023-06-10T10:35:17;4.90;;;3.70;;
16270;SDS011;8243;49.048;8.396;2023-06-10T10:37:46;3.97;;;3.67;;
16270;SDS011;8243;49.048;8.396;2023-06-10T10:40:11;4.23;;;3.83;;
16270;SDS011;8243;49.048;8.396;2023-06-10T10:42:38;3.67;;;3.30;;
16270;SDS011;8243;49.048;8.396;2023-06-10T10:45:05;6.97;;;3.60;;
16270;SDS011;8243;49.048;8.396;2023-06-10T10:47:31;4.00;;;3.63;;
16270;SDS011;8243;49.048;8.396;2023-06-10T10:49:59;3.90;;;3.60;;
16270;SDS011;8243;49.048;8.396;2023-06-10T10:52:25;3.60;;;3.30;;
16270;SDS011;8243;49.048;8.396;2023-06-10T10:55:12;3.53;;;3.27;;
16270;SDS011;8243;49.048;8.396;2023-06-10T10:57:38;4.10;;;3.80;;
16270;SDS011;8243;49.048;8.396;2023-06-10T11:00:04;5.13;;;3.87;;
16270;SDS011;8243;49.048;8.396;2023-06-10T11:02:41;4.03;;;3.63;;
16270;SDS011;8243;49.048;8.396;2023-06-10T11:05:08;4.97;;;4.10;;
16270;SDS011;8243;49.048;8.396;2023-06-10T11:07:40;4.43;;;3.37;;
16270;SDS011;8243;49.048;8.396;2023-06-10T11:10:17;5.13;;;3.73;;
16270;SDS011;8243;49.048;8.396;2023-06-10T11:12:56;4.33;;;3.60;;
16270;SDS011;8243;49.048;8.396;2023-06-10T11:15:23;5.17;;;4.00;;
16270;SDS011;8243;49.048;8.396;2023-06-10T11:20:44;4.43;;;3.60;;
16270;SDS011;8243;49.048;8.396;2023-06-10T11:34:02;3.80;;;3.50;;
16270;SDS011;8243;49.048;8.396;2023-06-10T11:36:30;4.63;;;3.50;;
16270;SDS011;8243;49.048;8.396;2023-06-10T11:39:01;4.30;;;3.60;;
16270;SDS011;8243;49.048;8.396;2023-06-10T11:41:28;4.83;;;3.50;;
16270;SDS011;8243;49.048;8.396;2023-06-10T11:43:56;4.17;;;3.20;;
16270;SDS011;8243;49.048;8.396;2023-06-10T11:46:25;3.40;;;3.10;;
16270;SDS011;8243;49.048;8.396;2023-06-10T11:48:55;3.83;;;3.50;;
16270;SDS011;8243;49.048;8.396;2023-06-10T11:51:25;4.77;;;3.67;;
16270;SDS011;8243;49.048;8.396;2023-06-10T11:53:52;3.80;;;3.50;;
16270;SDS011;8243;49.048;8.396;2023-06-10T11:56:22;5.23;;;3.30;;
16270;SDS011;8243;49.048;8.396;2023-06-10T11:58:54;3.63;;;3.33;;
16270;SDS011;8243;49.048;8.396;2023-06-10T12:01:22;3.37;;;3.13;;
16270;SDS011;8243;49.048;8.396;2023-06-10T12:06:45;3.97;;;3.67;;
16270;SDS011;8243;49.048;8.396;2023-06-10T12:09:13;4.47;;;3.50;;
16270;SDS011;8243;49.048;8.396;2023-06-10T12:11:39;5.37;;;3.50;;
16270;SDS011;8243;49.048;8.396;2023-06-10T12:14:05;3.60;;;3.30;;
16270;SDS011;8243;49.048;8.396;2023-06-10T12:16:31;4.57;;;3.07;;
16270;SDS011;8243;49.048;8.396;2023-06-10T12:19:00;4.57;;;3.30;;
16270;SDS011;8243;49.048;8.396;2023-06-10T12:21:27;4.80;;;3.30;;
16270;SDS011;8243;49.048;8.396;2023-06-10T12:24:00;3.93;;;3.37;;
16270;SDS011;8243;49.048;8.396;2023-06-10T12:26:40;3.30;;;3.00;;
16270;SDS011;8243;49.048;8.396;2023-06-10T12:31:57;3.60;;;3.30;;
16270;SDS011;8243;49.048;8.396;2023-06-10T12:34:36;3.33;;;3.07;;
16270;SDS011;8243;49.048;8.396;2023-06-10T12:37:06;3.30;;;3.00;;
16270;SDS011;8243;49.048;8.396;2023-06-10T12:39:38;3.67;;;2.80;;
16270;SDS011;8243;49.048;8.396;2023-06-10T12:42:04;3.67;;;3.30;;
16270;SDS011;8243;49.048;8.396;2023-06-10T12:44:34;3.33;;;3.00;;
16270;SDS011;8243;49.048;8.396;2023-06-10T12:47:10;3.17;;;2.73;;
16270;SDS011;8243;49.048;8.396;2023-06-10T12:49:40;3.17;;;2.97;;
16270;SDS011;8243;49.048;8.396;2023-06-10T12:52:06;4.23;;;2.87;;
16270;SDS011;8243;49.048;8.396;2023-06-10T12:54:32;3.20;;;2.90;;
16270;SDS011;8243;49.048;8.396;2023-06-10T12:56:58;3.40;;;3.10;;
16270;SDS011;8243;49.048;8.396;2023-06-10T12:59:23;4.63;;;3.23;;
16270;SDS011;8243;49.048;8.396;2023-06-10T13:01:50;3.30;;;3.00;;
16270;SDS011;8243;49.048;8.396;2023-06-10T13:04:17;3.87;;;3.10;;
16270;SDS011;8243;49.048;8.396;2023-06-10T13:06:43;3.40;;;2.80;;
16270;SDS011;8243;49.048;8.396;2023-06-10T13:09:09;3.93;;;2.93;;
16270;SDS011;8243;49.048;8.396;2023-06-10T13:11:35;3.47;;;3.10;;
16270;SDS011;8243;49.048;8.396;2023-06-10T13:14:01;3.63;;;2.90;;
16270;SDS011;8243;49.048;8.396;2023-06-10T13:16:28;2.90;;;2.60;;
16270;SDS011;8243;49.048;8.396;2023-06-10T13:18:53;2.90;;;2.70;;
16270;SDS011;8243;49.048;8.396;2023-06-10T13:21:22;3.60;;;3.30;;
16270;SDS011;8243;49.048;8.396;2023-06-10T13:23:48;3.50;;;3.20;;
16270;SDS011;8243;49.048;8.396;2023-06-10T13:26:14;4.37;;;3.00;;
16270;SDS011;8243;49.048;8.396;2023-06-10T13:28:42;3.50;;;3.13;;
16270;SDS011;8243;49.048;8.396;2023-06-10T13:31:10;3.40;;;3.10;;
16270;SDS011;8243;49.048;8.396;2023-06-10T13:33:36;3.50;;;3.20;;
16270;SDS011;8243;49.048;8.396;2023-06-10T13:36:02;3.50;;;3.20;;
16270;SDS011;8243;49.048;8.396;2023-06-10T13:38:28;3.10;;;2.90;;
16270;SDS011;8243;49.048;8.396;2023-06-10T13:40:53;3.43;;;3.13;;
16270;SDS011;8243;49.048;8.396;2023-06-10T13:43:19;3.47;;;3.17;;
16270;SDS011;8243;49.048;8.396;2023-06-10T13:45:45;3.20;;;3.00;;
16270;SDS011;8243;49.048;8.396;2023-06-10T13:48:10;3.10;;;2.80;;
16270;SDS011;8243;49.048;8.396;2023-06-10T13:50:37;4.03;;;3.00;;
16270;SDS011;8243;49.048;8.396;2023-06-10T13:53:02;3.50;;;3.20;;
16270;SDS011;8243;49.048;8.396;2023-06-10T13:55:28;3.60;;;3.30;;
16270;SDS011;8243;49.048;8.396;2023-06-10T13:57:54;3.57;;;3.20;;
16270;SDS011;8243;49.048;8.396;2023-06-10T14:00:19;4.00;;;3.10;;
16270;SDS011;8243;49.048;8.396;2023-06-10T14:02:45;3.93;;;3.20;;
16270;SDS011;8243;49.048;8.396;2023-06-10T14:05:11;3.83;;;3.33;;
16270;SDS011;8243;49.048;8.396;2023-06-10T14:07:37;3.47;;;3.17;;
16270;SDS011;8243;49.048;8.396;2023-06-10T14:10:02;3.47;;;3.17;;
16270;SDS011;8243;49.048;8.396;2023-06-10T14:12:28;3.53;;;3.10;;
16270;SDS011;8243;49.048;8.396;2023-06-10T14:14:54;3.53;;;3.23;;
16270;SDS011;8243;49.048;8.396;2023-06-10T14:17:20;3.47;;;3.27;;
16270;SDS011;8243;49.048;8.396;2023-06-10T14:19:45;3.57;;;3.27;;
16270;SDS011;8243;49.048;8.396;2023-06-10T14:22:11;3.70;;;3.40;;
16270;SDS011;8243;49.048;8.396;2023-06-10T14:24:36;5.70;;;3.83;;
16270;SDS011;8243;49.048;8.396;2023-06-10T14:27:03;3.83;;;3.53;;
16270;SDS011;8243;49.048;8.396;2023-06-10T14:29:29;3.37;;;3.17;;
16270;SDS011;8243;49.048;8.396;2023-06-10T14:31:56;3.50;;;3.20;;
16270;SDS011;8243;49.048;8.396;2023-06-10T14:34:21;4.30;;;3.30;;
16270;SDS011;8243;49.048;8.396;2023-06-10T14:36:48;3.40;;;3.10;;
16270;SDS011;8243;49.048;8.396;2023-06-10T14:39:14;3.33;;;3.03;;
16270;SDS011;8243;49.048;8.396;2023-06-10T14:41:39;3.60;;;3.20;;
16270;SDS011;8243;49.048;8.396;2023-06-10T14:44:05;3.97;;;2.97;;
16270;SDS011;8243;49.048;8.396;2023-06-10T14:46:30;3.93;;;3.60;;
16270;SDS011;8243;49.048;8.396;2023-06-10T14:48:56;4.70;;;4.30;;
16270;SDS011;8243;49.048;8.396;2023-06-10T14:51:24;3.40;;;3.10;;
16270;SDS011;8243;49.048;8.396;2023-06-10T14:53:49;5.53;;;3.87;;
16270;SDS011;8243;49.048;8.396;2023-06-10T14:56:15;3.37;;;2.80;;
16270;SDS011;8243;49.048;8.396;2023-06-10T14:58:41;2.90;;;2.70;;
16270;SDS011;8243;49.048;8.396;2023-06-10T15:01:07;4.37;;;3.30;;
16270;SDS011;8243;49.048;8.396;2023-06-10T15:03:52;4.83;;;3.50;;
16270;SDS011;8243;49.048;8.396;2023-06-10T15:06:18;4.00;;;3.60;;
16270;SDS011;8243;49.048;8.396;2023-06-10T15:08:46;3.67;;;3.07;;
16270;SDS011;8243;49.048;8.396;2023-06-10T15:11:13;3.27;;;3.00;;
16270;SDS011;8243;49.048;8.396;2023-06-10T15:13:39;3.10;;;2.90;;
16270;SDS011;8243;49.048;8.396;2023-06-10T15:16:05;3.03;;;2.83;;
16270;SDS011;8243;49.048;8.396;2023-06-10T15:18:31;5.30;;;2.73;;
16270;SDS011;8243;49.048;8.396;2023-06-10T15:20:57;3.43;;;3.10;;
16270;SDS011;8243;49.048;8.396;2023-06-10T15:23:22;3.00;;;2.80;;
16270;SDS011;8243;49.048;8.396;2023-06-10T15:25:48;3.20;;;2.93;;
16270;SDS011;8243;49.048;8.396;2023-06-10T15:28:13;3.13;;;2.93;;